Time;durP1;ratioP1;P1;durP2;ratioP2;P2;SDS_P1;SDS_P2;PMS_P1;PMS_P2;Temp;Humidity;BMP_temperature;BMP_pressure;BME280_temperature;BME280_humidity;BME280_pressure;Samples;Min_cycle;Max_cycle;Signal;HPM_P1;HPM_P2
2022/11/03 00:03:21;;;;;;;5.77;4.07;;;;;;;11.62;60.80;99199.59;6976201;28;20322;-85
2022/11/03 00:06:43;;;;;;;6.03;4.00;;;;;;;11.69;61.14;99209.38;6976639;28;20238;-85
2022/11/03 00:10:05;;;;;;;5.57;3.53;;;;;;;11.93;60.58;99221.50;6976581;28;20246;-84
2022/11/03 00:13:27;;;;;;;8.17;4.03;;;;;;;12.09;59.87;99199.53;6980464;28;20261;-85
2022/11/03 00:16:49;;;;;;;6.00;4.23;;;;;;;11.72;60.16;99218.94;6990685;28;20203;-86
2022/11/03 00:20:11;;;;;;;5.77;3.80;;;;;;;11.73;60.90;99217.88;6982188;28;20237;-84
2022/11/03 00:23:35;;;;;;;8.33;4.07;;;;;;;11.54;60.99;99215.91;6974117;28;20261;-85
2022/11/03 00:26:56;;;;;;;4.73;3.80;;;;;;;11.51;60.96;99184.75;6974289;28;20264;-84
2022/11/03 00:30:18;;;;;;;7.17;4.33;;;;;;;11.57;60.96;99199.31;6973074;28;20703;-85
2022/11/03 00:33:41;;;;;;;10.53;4.73;;;;;;;11.54;60.92;99191.63;6973409;28;20357;-85
2022/11/03 00:37:03;;;;;;;5.67;4.40;;;;;;;11.52;61.15;99209.91;6974058;28;20238;-85
2022/11/03 00:40:24;;;;;;;5.50;4.23;;;;;;;11.47;61.28;99193.47;6973661;28;20296;-84
2022/11/03 00:43:47;;;;;;;7.73;4.20;;;;;;;11.34;60.96;99156.44;6973610;28;20253;-85
2022/11/03 00:47:08;;;;;;;6.10;4.27;;;;;;;11.57;60.84;99183.13;6972178;28;20264;-84
2022/11/03 00:50:33;;;;;;;9.17;4.53;;;;;;;11.62;60.71;99170.69;6973998;28;20226;-85
2022/11/03 00:53:56;;;;;;;6.80;4.17;;;;;;;11.46;60.58;99162.09;6973797;28;20238;-85
2022/11/03 00:57:18;;;;;;;6.13;4.37;;;;;;;11.63;60.35;99168.84;6973555;28;20238;-85
2022/11/03 01:00:39;;;;;;;8.93;4.33;;;;;;;11.40;60.42;99160.22;6973312;28;20202;-84
2022/11/03 01:07:41;;;;;;;8.20;4.07;;;;;;;11.31;60.63;99150.59;6973110;28;20629;-85
2022/11/03 01:14:48;;;;;;;7.30;3.73;;;;;;;11.40;60.59;99144.81;6972752;28;20175;-85
2022/11/03 01:18:09;;;;;;;5.03;3.57;;;;;;;11.17;60.72;99109.22;6972405;28;20293;-85
2022/11/03 01:21:31;;;;;;;5.57;4.10;;;;;;;11.03;61.21;99121.00;6973004;28;20700;-85
2022/11/03 01:24:54;;;;;;;9.13;4.50;;;;;;;11.03;61.23;99139.06;6972799;28;20263;-84
2022/11/03 01:28:16;;;;;;;8.07;4.40;;;;;;;11.09;61.48;99114.81;6972104;28;20233;-85
2022/11/03 01:31:38;;;;;;;11.40;5.10;;;;;;;11.13;60.92;99131.44;6977961;28;20287;-85
2022/11/03 01:34:59;;;;;;;7.87;4.17;;;;;;;11.27;60.76;99135.88;6979281;28;20293;-84
2022/11/03 01:38:21;;;;;;;8.43;4.00;;;;;;;11.38;60.65;99119.06;6978945;28;20209;-85
2022/11/03 01:41:47;;;;;;;6.00;3.93;;;;;;;10.98;60.45;99114.56;6979453;28;20651;-85
2022/11/03 01:45:09;;;;;;;5.80;3.83;;;;;;;11.12;60.42;99106.31;6979752;28;21305;-85
2022/11/03 01:48:33;;;;;;;7.53;3.90;;;;;;;11.00;60.95;99113.31;6982585;28;20267;-84
2022/11/03 01:51:57;;;;;;;7.60;3.93;;;;;;;10.77;60.51;99101.16;6987459;28;20256;-85
2022/11/03 01:55:24;;;;;;;5.83;3.57;;;;;;;11.18;60.08;99100.13;6989431;28;20604;-84
2022/11/03 01:58:50;;;;;;;5.50;3.40;;;;;;;11.22;60.39;99108.66;6989709;28;20548;-85
2022/11/03 02:02:12;;;;;;;6.30;4.30;;;;;;;11.33;60.25;99105.38;6990830;28;20241;-85
2022/11/03 02:05:33;;;;;;;8.50;4.17;;;;;;;11.43;59.84;99103.94;6990800;28;20264;-84
2022/11/03 02:08:59;;;;;;;7.20;4.37;;;;;;;11.17;60.09;99101.13;6989835;28;20206;-85
2022/11/03 02:12:22;;;;;;;9.37;4.20;;;;;;;10.95;60.97;99096.06;6991132;28;20609;-86
2022/11/03 02:15:49;;;;;;;6.30;3.73;;;;;;;11.15;60.65;99087.00;6990724;28;20590;-85
2022/11/03 02:19:16;;;;;;;4.63;3.70;;;;;;;11.14;60.38;99063.75;6989869;28;20211;-85
2022/11/03 02:23:13;;;;;;;9.13;4.03;;;;;;;10.95;60.45;99063.69;6989444;28;20232;-85
2022/11/03 02:26:37;;;;;;;6.73;3.93;;;;;;;10.86;61.33;99057.63;6990040;28;20198;-85
2022/11/03 02:29:58;;;;;;;7.17;4.70;;;;;;;11.13;61.05;99070.19;6989243;28;20227;-86
2022/11/03 02:33:36;;;;;;;10.20;4.50;;;;;;;10.47;60.92;99008.06;6989845;28;20226;-85
2022/11/03 02:37:03;;;;;;;6.80;3.73;;;;;;;10.65;62.24;99062.28;6990200;28;20238;-84
2022/11/03 02:40:29;;;;;;;10.47;5.20;;;;;;;10.77;61.48;99029.19;6989283;28;20201;-85
2022/11/03 02:43:54;;;;;;;8.03;4.23;;;;;;;10.75;61.76;99050.09;6990364;28;20240;-85
2022/11/03 02:47:17;;;;;;;8.73;4.77;;;;;;;10.28;61.19;98987.25;6988928;28;20218;-85
2022/11/03 02:50:39;;;;;;;8.70;4.60;;;;;;;10.41;62.07;99069.00;6989914;28;20223;-85
2022/11/03 02:54:05;;;;;;;11.03;4.30;;;;;;;9.96;61.87;99012.91;6990404;28;20210;-85
2022/11/03 02:57:30;;;;;;;7.50;4.67;;;;;;;10.26;61.62;99033.25;6989774;28;20189;-85
2022/11/03 03:00:55;;;;;;;7.13;4.20;;;;;;;10.24;62.14;99047.94;6989726;28;20206;-85
2022/11/03 03:04:21;;;;;;;7.80;4.53;;;;;;;10.62;60.61;99036.56;6990088;28;20210;-84
2022/11/03 03:07:46;;;;;;;7.10;5.00;;;;;;;10.41;60.22;99027.72;6989052;28;20210;-85
2022/11/03 03:11:08;;;;;;;9.37;4.50;;;;;;;10.45;61.19;99021.75;6988655;28;20237;-85
2022/11/03 03:14:32;;;;;;;4.80;3.80;;;;;;;10.13;61.39;99029.63;6989306;28;20213;-85
2022/11/03 03:18:00;;;;;;;7.17;4.10;;;;;;;10.29;61.39;98984.34;6987886;28;20215;-85
2022/11/03 03:25:22;;;;;;;11.10;4.73;;;;;;;10.62;60.27;99003.41;6985183;28;20286;-85
2022/11/03 03:28:47;;;;;;;6.90;4.60;;;;;;;10.56;60.70;98985.31;6982895;28;20214;-85
2022/11/03 03:32:10;;;;;;;7.67;5.03;;;;;;;10.69;60.23;98993.47;6985938;28;20230;-88
2022/11/03 03:35:33;;;;;;;7.53;4.80;;;;;;;10.73;59.83;98989.31;6985135;28;20214;-84
2022/11/03 03:38:57;;;;;;;8.23;5.53;;;;;;;10.12;60.98;98931.81;6982914;28;20206;-84
2022/11/03 03:42:20;;;;;;;6.10;4.67;;;;;;;9.96;61.59;98937.50;6982564;28;20246;-86
2022/11/03 03:45:43;;;;;;;6.80;4.40;;;;;;;10.51;60.57;98963.53;6980621;28;20198;-84
2022/11/03 03:49:05;;;;;;;9.43;5.67;;;;;;;10.32;60.71;98924.66;6979248;28;20234;-84
2022/11/03 03:52:29;;;;;;;7.37;5.40;;;;;;;9.56;62.78;98951.69;6977112;28;20308;-84
2022/11/03 03:55:52;;;;;;;9.77;5.23;;;;;;;10.14;62.23;98937.84;6949643;28;20233;-84
2022/11/03 03:59:13;;;;;;;10.37;5.03;;;;;;;10.40;62.11;98969.47;6948735;28;20238;-84
2022/11/03 04:02:35;;;;;;;6.43;5.30;;;;;;;10.15;61.88;98957.53;6950808;28;20254;-84
2022/11/03 04:05:57;;;;;;;9.97;6.20;;;;;;;9.19;64.94;98932.31;6952548;28;20234;-84
2022/11/03 04:09:19;;;;;;;9.30;5.93;;;;;;;9.74;65.11;98943.97;6954687;28;20210;-84
2022/11/03 04:27:36;;;;;;;9.37;5.20;;;;;;;10.14;62.48;98900.13;6952006;28;20207;-84
2022/11/03 04:30:59;;;;;;;12.37;6.10;;;;;;;9.57;64.25;98902.22;6958829;28;20246;-85
2022/11/03 04:34:22;;;;;;;9.00;5.57;;;;;;;10.35;63.00;98891.94;6958815;28;20206;-84
2022/11/03 04:37:47;;;;;;;9.30;5.33;;;;;;;10.34;62.20;98854.41;6950179;28;20219;-84
2022/11/03 04:41:14;;;;;;;8.87;6.10;;;;;;;10.22;62.14;98889.16;6951808;28;20700;-86
2022/11/03 04:44:37;;;;;;;7.27;5.33;;;;;;;9.18;63.22;98777.34;6952547;28;20230;-85
2022/11/03 04:48:13;;;;;;;11.00;6.43;;;;;;;10.29;62.03;98881.09;6957104;28;20210;-84
2022/11/03 04:51:35;;;;;;;10.97;5.90;;;;;;;9.53;62.56;98777.16;6958537;28;20252;-84
2022/11/03 04:54:57;;;;;;;7.33;5.77;;;;;;;10.02;61.93;98823.56;6980601;28;20217;-85
2022/11/03 04:58:20;;;;;;;10.07;6.30;;;;;;;10.23;61.91;98855.81;6985681;28;20293;-87
2022/11/03 05:01:45;;;;;;;7.40;4.93;;;;;;;10.15;61.94;98837.13;6985765;28;20230;-84
2022/11/03 05:05:15;;;;;;;13.47;5.80;;;;;;;9.92;61.52;98817.72;6989875;28;20209;-84
2022/11/03 05:08:37;;;;;;;9.27;5.77;;;;;;;10.12;61.43;98853.69;6990562;28;20537;-84
2022/11/03 05:11:59;;;;;;;6.57;5.80;;;;;;;10.11;61.70;98854.69;6990997;28;20241;-84
2022/11/03 05:15:29;;;;;;;9.33;5.83;;;;;;;10.42;61.29;98841.56;6990260;28;20208;-83
2022/11/03 05:19:00;;;;;;;9.50;5.40;;;;;;;10.29;60.87;98856.84;6990391;28;20219;-84
2022/11/03 05:22:22;;;;;;;9.10;5.53;;;;;;;10.05;60.89;98838.53;6989732;28;20237;-85
2022/11/03 05:25:46;;;;;;;15.20;6.47;;;;;;;10.30;61.57;98836.97;6991443;28;20210;-85
2022/11/03 05:29:14;;;;;;;8.53;6.07;;;;;;;10.46;61.14;98836.59;6989515;28;20206;-84
2022/11/03 05:32:36;;;;;;;8.10;5.40;;;;;;;9.87;60.03;98771.69;6990551;28;20236;-83
2022/11/03 05:36:02;;;;;;;8.23;5.90;;;;;;;10.11;60.63;98826.94;6990694;28;20202;-84
2022/11/03 05:39:29;;;;;;;8.93;6.33;;;;;;;10.20;60.85;98814.94;6988744;28;20213;-83
2022/11/03 05:42:53;;;;;;;7.90;6.03;;;;;;;10.12;60.57;98778.25;6987674;28;20218;-83
2022/11/03 05:46:15;;;;;;;8.83;5.80;;;;;;;9.68;60.70;98794.00;6979309;28;20234;-84
2022/11/03 05:49:36;;;;;;;7.97;6.33;;;;;;;9.63;61.86;98817.16;6977663;28;20217;-84
2022/11/03 05:53:04;;;;;;;11.13;7.13;;;;;;;9.83;61.15;98802.78;6978400;28;20862;-84
2022/11/03 05:56:26;;;;;;;7.83;6.40;;;;;;;9.71;61.04;98761.31;6965122;28;20633;-84
2022/11/03 05:59:49;;;;;;;9.10;6.07;;;;;;;9.75;61.51;98804.81;6980278;28;20202;-84
2022/11/03 06:03:14;;;;;;;11.07;6.80;;;;;;;9.78;61.59;98793.63;6980772;28;20226;-84
2022/11/03 06:06:38;;;;;;;12.23;6.97;;;;;;;9.92;61.41;98781.88;6980594;28;20238;-85
2022/11/03 06:10:01;;;;;;;8.90;6.30;;;;;;;9.90;61.67;98787.47;6980000;28;20238;-84
2022/11/03 06:13:25;;;;;;;11.13;6.40;;;;;;;10.20;61.45;98790.69;6980671;28;20237;-84
2022/11/03 06:16:53;;;;;;;11.00;6.73;;;;;;;10.16;60.96;98792.16;6984985;28;20198;-85
2022/11/03 06:20:16;;;;;;;9.63;6.63;;;;;;;10.49;61.07;98790.34;6987440;28;20211;-86
2022/11/03 06:23:39;;;;;;;12.53;6.70;;;;;;;10.31;60.72;98792.81;6984743;28;20368;-81
2022/11/03 06:27:04;;;;;;;9.97;6.97;;;;;;;10.12;60.93;98777.44;6980374;28;20213;-78
2022/11/03 06:30:29;;;;;;;11.20;7.17;;;;;;;10.45;60.38;98775.66;6980269;28;20194;-79
2022/11/03 06:33:51;;;;;;;12.03;7.27;;;;;;;9.94;60.41;98716.03;6981548;28;20257;-80
2022/11/03 06:37:19;;;;;;;9.20;6.33;;;;;;;10.46;59.79;98744.97;6977027;28;20211;-78
2022/11/03 06:40:41;;;;;;;10.83;7.80;;;;;;;10.06;60.12;98686.66;6976513;28;20563;-81
2022/11/03 06:44:20;;;;;;;12.67;7.20;;;;;;;10.01;61.12;98716.03;6977119;28;20376;-78
2022/11/03 06:47:43;;;;;;;14.60;8.90;;;;;;;10.32;60.92;98719.00;6974775;28;20242;-78
2022/11/03 06:51:14;;;;;;;19.37;11.23;;;;;;;10.38;60.74;98734.34;6980484;28;20709;-85
2022/11/03 06:54:36;;;;;;;16.77;9.50;;;;;;;10.31;61.24;98733.53;6982657;28;20226;-84
2022/11/03 06:57:59;;;;;;;14.17;8.20;;;;;;;10.78;60.73;98750.38;6982731;28;20733;-85
2022/11/03 07:01:25;;;;;;;12.70;8.00;;;;;;;10.81;60.88;98738.34;6988690;28;20237;-85
2022/11/03 07:04:47;;;;;;;9.70;7.30;;;;;;;10.79;61.13;98768.19;6989636;28;20220;-84
2022/11/03 07:08:19;;;;;;;15.17;8.07;;;;;;;10.53;61.66;98753.88;6988840;28;20225;-86
2022/11/03 07:11:44;;;;;;;12.33;7.57;;;;;;;11.05;61.15;98752.00;6960470;28;20241;-85
2022/11/03 07:15:18;;;;;;;10.33;7.30;;;;;;;11.00;60.95;98710.50;6958506;28;20234;-84
2022/11/03 07:18:42;;;;;;;13.30;8.17;;;;;;;11.20;60.19;98760.69;6963485;28;20248;-82
2022/11/03 07:22:05;;;;;;;9.70;8.07;;;;;;;11.41;60.51;98751.53;6983718;28;20228;-80
2022/11/03 07:25:27;;;;;;;11.13;7.97;;;;;;;10.89;60.25;98662.59;6982111;28;20290;-78
2022/11/03 07:28:49;;;;;;;15.73;8.97;;;;;;;11.22;60.34;98733.50;6975179;28;20296;-78
2022/11/03 07:32:15;;;;;;;14.17;9.47;;;;;;;10.98;61.46;98736.88;6974337;28;20234;-78
2022/11/03 07:35:41;;;;;;;11.07;8.77;;;;;;;11.50;60.00;98705.19;6948634;28;20199;-78
2022/11/03 07:39:02;;;;;;;10.60;7.73;;;;;;;11.92;59.55;98704.59;6946251;28;20286;-77
2022/11/03 07:42:25;;;;;;;12.83;8.13;;;;;;;12.07;59.22;98715.97;6957250;28;20246;-77
2022/11/03 07:45:49;;;;;;;10.90;7.53;;;;;;;12.24;59.29;98716.28;6974072;28;20251;-77
2022/11/03 07:49:21;;;;;;;12.53;7.97;;;;;;;12.24;59.21;98702.75;6974595;28;20194;-78
2022/11/03 07:52:44;;;;;;;13.87;7.30;;;;;;;12.63;58.73;98694.38;6969026;28;20346;-77
2022/11/03 07:56:14;;;;;;;11.97;7.30;;;;;;;12.74;58.48;98697.16;6974932;28;20341;-78
2022/11/03 07:59:37;;;;;;;10.77;7.77;;;;;;;12.85;58.56;98666.69;6974327;28;20201;-77
2022/11/03 08:03:00;;;;;;;9.90;7.70;;;;;;;13.36;57.98;98688.03;6975403;28;20239;-78
2022/11/03 08:06:21;;;;;;;9.80;6.80;;;;;;;13.66;57.13;98665.38;6975175;28;20265;-78
2022/11/03 08:09:44;;;;;;;11.57;7.73;;;;;;;13.52;57.94;98663.06;6974011;28;20207;-78
2022/11/03 08:13:06;;;;;;;15.37;7.37;;;;;;;13.99;56.92;98651.38;6974749;28;20284;-78
2022/11/03 08:16:27;;;;;;;10.20;6.30;;;;;;;14.77;55.10;98650.16;6975137;28;20238;-78
2022/11/03 08:19:49;;;;;;;11.30;6.73;;;;;;;15.90;52.92;98658.38;6974144;28;20268;-78
2022/11/03 08:23:11;;;;;;;12.17;6.90;;;;;;;15.58;53.17;98654.47;6965444;28;20315;-78
2022/11/03 08:26:34;;;;;;;9.70;6.80;;;;;;;14.87;54.79;98643.06;6946653;28;20603;-78
2022/11/03 08:29:55;;;;;;;8.20;6.43;;;;;;;15.74;53.40;98621.09;6948976;28;20289;-79
2022/11/03 08:33:17;;;;;;;10.03;6.50;;;;;;;16.67;53.00;98615.97;6948377;28;20279;-79
2022/11/03 08:36:38;;;;;;;9.37;6.57;;;;;;;17.37;51.85;98606.09;6948137;28;20278;-77
2022/11/03 08:40:00;;;;;;;9.70;6.57;;;;;;;17.69;50.54;98596.19;6946229;28;20237;-78
2022/11/03 08:43:23;;;;;;;7.50;6.20;;;;;;;17.55;50.98;98589.44;6946499;28;20658;-78
2022/11/03 08:46:44;;;;;;;10.07;6.03;;;;;;;17.87;50.40;98583.00;6944442;28;20223;-78
2022/11/03 08:50:08;;;;;;;8.50;6.47;;;;;;;17.54;51.22;98596.81;6945916;28;20213;-78
2022/11/03 08:53:29;;;;;;;14.93;6.57;;;;;;;17.22;51.39;98560.41;6946191;28;20295;-78
2022/11/03 08:56:51;;;;;;;8.73;5.90;;;;;;;16.92;53.98;98578.25;6956236;28;20240;-79
2022/11/03 09:00:16;;;;;;;10.23;5.53;;;;;;;17.48;51.94;98572.47;6974086;28;20352;-79
2022/11/03 09:03:38;;;;;;;9.60;6.30;;;;;;;16.96;53.76;98571.22;6974106;28;20226;-80
2022/11/03 09:06:59;;;;;;;7.03;5.37;;;;;;;16.94;53.27;98567.91;6974305;28;20215;-79
2022/11/03 09:10:21;;;;;;;5.97;4.60;;;;;;;17.62;51.49;98565.53;6974377;28;20295;-79
2022/11/03 09:13:42;;;;;;;5.47;4.67;;;;;;;17.71;50.34;98536.75;6973989;28;20234;-79
2022/11/03 09:17:05;;;;;;;6.23;5.10;;;;;;;17.17;50.76;98543.19;6974803;28;20300;-79
2022/11/03 09:20:27;;;;;;;8.17;5.53;;;;;;;17.69;50.23;98555.28;6946347;28;20563;-79
2022/11/03 09:23:49;;;;;;;8.00;4.57;;;;;;;17.86;49.55;98559.53;6969473;28;20228;-82
2022/11/03 09:27:10;;;;;;;11.27;6.03;;;;;;;17.93;51.01;98551.16;6975133;28;20198;-80
2022/11/03 09:30:32;;;;;;;8.37;4.90;;;;;;;17.63;51.97;98518.13;6974690;28;20693;-81
2022/11/03 09:33:55;;;;;;;68.30;44.50;;;;;;;18.21;51.81;98557.16;6977940;28;20244;-81
2022/11/03 09:37:17;;;;;;;6.03;4.30;;;;;;;17.97;51.62;98552.28;6975331;28;20540;-84
2022/11/03 09:40:38;;;;;;;5.87;4.40;;;;;;;18.18;51.06;98549.50;6975102;28;20684;-78
2022/11/03 09:44:01;;;;;;;6.13;5.13;;;;;;;18.78;49.59;98535.47;6975403;28;20282;-79
2022/11/03 09:47:25;;;;;;;5.30;4.13;;;;;;;18.80;47.87;98534.13;6973235;28;20674;-78
2022/11/03 09:50:52;;;;;;;6.13;4.10;;;;;;;18.92;47.40;98553.88;6976298;28;20238;-79
2022/11/03 09:54:16;;;;;;;8.73;4.43;;;;;;;18.99;46.72;98543.53;6976344;28;20233;-80
2022/11/03 09:57:37;;;;;;;6.67;4.00;;;;;;;19.07;46.82;98542.22;6968531;28;20256;-79
2022/11/03 10:01:00;;;;;;;7.07;3.93;;;;;;;18.95;47.18;98538.88;6971550;28;20800;-79
2022/11/03 10:04:26;;;;;;;5.93;3.90;;;;;;;18.96;46.71;98522.22;6978116;28;20687;-79
2022/11/03 10:07:48;;;;;;;4.60;4.10;;;;;;;18.91;46.67;98524.09;6978488;28;20655;-78
2022/11/03 10:11:10;;;;;;;6.87;4.23;;;;;;;19.06;46.84;98494.94;6978837;28;20362;-79
2022/11/03 10:14:32;;;;;;;6.23;4.13;;;;;;;18.96;46.03;98459.38;6980235;28;20296;-81
2022/11/03 10:17:54;;;;;;;4.97;4.13;;;;;;;19.09;46.69;98510.78;6979553;28;20210;-79
2022/11/03 10:21:18;;;;;;;8.47;4.13;;;;;;;18.83;46.53;98505.47;6979161;28;20226;-79
2022/11/03 10:24:41;;;;;;;4.60;3.90;;;;;;;18.74;46.72;98502.41;6979509;28;20282;-79
2022/11/03 10:28:20;;;;;;;6.10;4.80;;;;;;;18.53;47.25;98483.44;6979021;28;20278;-80
2022/11/03 10:31:42;;;;;;;10.40;4.80;;;;;;;18.58;47.00;98475.28;6978555;28;20763;-79
2022/11/03 10:35:04;;;;;;;6.53;4.77;;;;;;;18.47;47.67;98488.06;6978439;28;20225;-80
2022/11/03 10:38:29;;;;;;;7.37;4.53;;;;;;;18.75;46.93;98476.75;6965950;28;20280;-79
2022/11/03 10:41:57;;;;;;;7.17;4.57;;;;;;;18.62;47.75;98474.50;6951505;28;20227;-79
2022/11/03 10:45:21;;;;;;;9.80;4.60;;;;;;;18.55;47.60;98465.72;6949754;28;20216;-80
2022/11/03 10:48:43;;;;;;;5.73;4.27;;;;;;;18.42;47.85;98460.72;6950217;28;20218;-79
2022/11/03 10:52:16;;;;;;;7.90;4.40;;;;;;;18.70;47.45;98464.97;6954825;28;20238;-79
2022/11/03 10:55:37;;;;;;;7.60;4.53;;;;;;;18.74;47.57;98452.44;6950666;28;20581;-79
2022/11/03 10:59:00;;;;;;;7.00;4.63;;;;;;;18.79;47.47;98419.66;6950048;28;20243;-79
2022/11/03 11:02:25;;;;;;;7.17;5.07;;;;;;;19.01;47.00;98431.25;6948802;28;20257;-79
2022/11/03 11:05:47;;;;;;;7.70;4.93;;;;;;;18.94;47.06;98420.59;6950081;28;20826;-79
2022/11/03 11:09:10;;;;;;;6.03;4.77;;;;;;;19.02;46.68;98425.53;6949502;28;20214;-80
2022/11/03 11:12:31;;;;;;;5.20;3.90;;;;;;;18.92;47.00;98411.00;6963389;28;20250;-80
2022/11/03 11:15:56;;;;;;;9.37;4.47;;;;;;;18.76;47.23;98407.38;6963232;28;20245;-80
2022/11/03 11:19:17;;;;;;;8.50;4.53;;;;;;;19.01;47.53;98407.47;6949172;28;20692;-79
2022/11/03 11:22:39;;;;;;;9.70;5.10;;;;;;;18.82;47.25;98376.25;6949487;28;20250;-79
2022/11/03 11:26:14;;;;;;;6.87;4.80;;;;;;;18.86;47.84;98384.75;6950008;28;20235;-79
2022/11/03 11:29:35;;;;;;;7.27;4.93;;;;;;;19.01;47.43;98379.31;6949151;28;20216;-79
2022/11/03 11:33:00;;;;;;;7.90;4.50;;;;;;;18.91;47.47;98369.19;6948743;28;20236;-79
2022/11/03 11:36:23;;;;;;;6.77;4.60;;;;;;;19.07;47.41;98354.50;6948699;28;20254;-79
2022/11/03 11:39:45;;;;;;;6.47;4.23;;;;;;;19.07;47.35;98362.69;6949175;28;20210;-79
2022/11/03 11:43:25;;;;;;;9.07;4.30;;;;;;;18.06;48.65;98354.28;6948879;28;20317;-78
2022/11/03 11:46:47;;;;;;;7.93;5.00;;;;;;;18.33;48.71;98363.22;6947877;28;20281;-79
2022/11/03 11:50:23;;;;;;;6.87;4.40;;;;;;;18.69;48.63;98348.66;6948687;28;20293;-79
2022/11/03 11:53:45;;;;;;;6.77;4.43;;;;;;;18.51;49.06;98349.13;6948698;28;20246;-79
2022/11/03 11:57:18;;;;;;;7.17;4.20;;;;;;;18.06;50.10;98335.19;6948316;28;20210;-79
2022/11/03 12:00:53;;;;;;;6.50;4.60;;;;;;;17.95;50.87;98314.41;6964913;28;20194;-79
2022/11/03 12:04:18;;;;;;;8.30;4.33;;;;;;;18.31;50.48;98313.50;6974864;28;20223;-79
2022/11/03 12:07:41;;;;;;;7.57;4.27;;;;;;;17.82;51.50;98301.22;6951797;28;20363;-78
2022/11/03 12:11:04;;;;;;;8.43;4.30;;;;;;;18.33;49.61;98284.09;6947856;28;20225;-78
2022/11/03 12:14:33;;;;;;;7.80;4.80;;;;;;;18.17;50.42;98293.25;6953141;28;20313;-79
2022/11/03 12:17:54;;;;;;;6.20;4.67;;;;;;;18.26;50.56;98283.44;6975021;28;20677;-79
2022/11/03 12:21:45;;;;;;;9.70;4.30;;;;;;;18.03;50.70;98265.63;6974797;28;20254;-79
2022/11/03 12:25:33;;;;;;;7.83;4.37;;;;;;;18.55;49.57;98246.47;6974558;28;20233;-79
2022/11/03 12:28:55;;;;;;;5.50;3.97;;;;;;;18.65;49.76;98258.25;6974370;28;20211;-79
2022/11/03 12:32:17;;;;;;;11.20;4.37;;;;;;;18.98;48.86;98244.06;6974116;28;20317;-79
2022/11/03 12:35:38;;;;;;;9.13;4.37;;;;;;;18.89;48.07;98231.22;6981195;28;20217;-79
2022/11/03 12:39:00;;;;;;;8.40;4.43;;;;;;;19.07;48.38;98249.81;6950654;28;20838;-79
2022/11/03 12:42:23;;;;;;;5.93;3.83;;;;;;;18.78;48.63;98235.88;6946029;28;20317;-80
2022/11/03 12:45:45;;;;;;;5.00;3.60;;;;;;;19.13;47.87;98224.13;6944869;28;20207;-79
2022/11/03 12:49:07;;;;;;;6.40;4.20;;;;;;;19.27;47.69;98198.75;6945625;28;20277;-79
2022/11/03 12:52:28;;;;;;;5.27;3.90;;;;;;;19.09;48.05;98185.59;6945144;28;20235;-79
2022/11/03 12:55:50;;;;;;;4.93;3.63;;;;;;;19.24;47.23;98195.75;6949129;28;20298;-79
2022/11/03 12:59:13;;;;;;;6.53;3.90;;;;;;;19.08;48.29;98205.84;6946869;28;20234;-81
2022/11/03 13:02:34;;;;;;;5.97;3.77;;;;;;;19.19;47.66;98187.50;6946635;28;20295;-79
2022/11/03 13:05:56;;;;;;;5.80;3.60;;;;;;;18.72;48.90;98162.38;6954513;28;20296;-79
2022/11/03 13:09:17;;;;;;;6.53;4.13;;;;;;;18.98;48.50;98166.78;6973054;28;20373;-79
2022/11/03 13:12:40;;;;;;;5.13;3.80;;;;;;;19.13;48.28;98155.81;6963063;28;20381;-79
2022/11/03 13:16:03;;;;;;;5.53;3.70;;;;;;;18.48;49.45;98136.69;6970228;28;20652;-80
2022/11/03 13:19:24;;;;;;;5.13;3.53;;;;;;;19.05;48.92;98140.78;6971979;28;20296;-79
2022/11/03 13:22:46;;;;;;;5.40;3.60;;;;;;;18.60;49.08;98102.59;6972202;28;20372;-79
2022/11/03 13:26:08;;;;;;;6.33;3.37;;;;;;;18.54;49.28;98133.72;6978002;28;20203;-79
2022/11/03 13:29:29;;;;;;;6.80;3.63;;;;;;;18.26;49.85;98125.16;6977245;28;20694;-79
2022/11/03 13:32:52;;;;;;;8.13;3.87;;;;;;;19.05;48.13;98109.94;6979854;28;20226;-79
2022/11/03 13:36:14;;;;;;;4.33;3.40;;;;;;;19.07;47.93;98074.94;6979532;28;20234;-79
2022/11/03 13:39:35;;;;;;;4.53;3.33;;;;;;;19.13;48.83;98090.22;6978781;28;20213;-80
2022/11/03 13:42:57;;;;;;;6.07;3.73;;;;;;;19.51;47.01;98065.81;6979112;28;20829;-79
2022/11/03 13:46:18;;;;;;;6.67;3.70;;;;;;;19.79;46.51;98073.34;6968457;28;20257;-79
2022/11/03 13:49:41;;;;;;;6.03;3.70;;;;;;;19.26;47.16;98054.97;6952644;28;20292;-80
2022/11/03 13:53:03;;;;;;;4.23;3.30;;;;;;;19.47;46.83;98070.22;6978111;28;20326;-79
2022/11/03 13:56:24;;;;;;;7.37;3.73;;;;;;;19.71;46.65;98040.28;6977696;28;20750;-79
2022/11/03 13:59:46;;;;;;;7.97;3.67;;;;;;;19.77;45.97;98045.47;6973256;28;20786;-79
2022/11/03 14:03:07;;;;;;;4.27;3.67;;;;;;;18.99;47.91;98046.25;6972708;28;20305;-80
2022/11/03 14:06:30;;;;;;;5.40;3.33;;;;;;;19.73;45.99;98049.84;6963264;28;20687;-80
2022/11/03 14:09:51;;;;;;;7.20;3.17;;;;;;;19.82;45.62;98029.00;6955049;28;20239;-80
2022/11/03 14:13:13;;;;;;;4.13;3.37;;;;;;;19.80;46.01;98028.47;6977252;28;20255;-79
2022/11/03 14:16:35;;;;;;;4.57;3.57;;;;;;;18.79;47.86;98007.25;6972868;28;20228;-79
2022/11/03 14:19:56;;;;;;;5.03;3.40;;;;;;;19.16;46.84;97997.56;6977996;28;20293;-79
2022/11/03 14:23:19;;;;;;;3.63;3.10;;;;;;;19.82;44.86;97981.69;6978128;28;20309;-80
2022/11/03 14:26:41;;;;;;;4.07;3.07;;;;;;;19.97;44.91;97992.50;6979985;28;20240;-80
2022/11/03 14:30:02;;;;;;;5.63;4.13;;;;;;;19.88;46.49;97977.81;6979351;28;20239;-81
2022/11/03 14:33:24;;;;;;;6.67;3.90;;;;;;;19.64;47.35;97979.63;6979036;28;20285;-80
2022/11/03 14:36:45;;;;;;;5.03;4.17;;;;;;;19.56;47.82;97969.25;6978282;28;20298;-80
2022/11/03 14:42:02;;;;;;;8.03;4.40;;;;;;;19.26;47.67;97972.97;6975470;28;20244;-81
2022/11/03 14:43:52;;;;;;;4.73;3.97;;;;;;;19.57;47.10;97974.44;6951050;28;20752;-81
2022/11/03 14:47:16;;;;;;;5.07;4.03;;;;;;;19.80;46.12;97981.97;6955126;28;20238;-81
2022/11/03 14:50:37;;;;;;;5.30;3.80;;;;;;;19.74;45.98;97947.53;6952602;28;20211;-81
2022/11/03 14:53:59;;;;;;;4.70;3.70;;;;;;;19.84;45.81;97966.63;6952260;28;20304;-82
2022/11/03 14:57:22;;;;;;;4.60;3.07;;;;;;;19.51;46.61;97961.09;6951491;28;20292;-82
2022/11/03 15:00:43;;;;;;;5.27;3.40;;;;;;;19.50;47.11;97951.25;6974216;28;20230;-81
2022/11/03 15:04:05;;;;;;;2.73;2.53;;;;;;;19.28;47.36;97935.25;6979392;28;20202;-82
2022/11/03 15:07:27;;;;;;;5.87;3.17;;;;;;;19.22;47.07;97914.50;6978288;28;20213;-81
2022/11/03 15:10:48;;;;;;;3.23;2.77;;;;;;;19.51;46.42;97922.81;6978293;28;20336;-81
2022/11/03 15:14:12;;;;;;;4.33;3.27;;;;;;;19.56;46.24;97923.59;6977481;28;20321;-82
2022/11/03 15:17:33;;;;;;;3.50;3.20;;;;;;;19.27;47.46;97919.16;6978390;28;20195;-81
2022/11/03 15:20:55;;;;;;;4.90;3.83;;;;;;;19.23;47.86;97905.19;6972113;28;20690;-81
2022/11/03 15:24:16;;;;;;;7.60;3.80;;;;;;;19.03;48.07;97899.81;6977911;28;20574;-81
2022/11/03 15:27:38;;;;;;;7.20;3.57;;;;;;;18.96;47.28;97858.34;6977847;28;20256;-81
2022/11/03 15:31:01;;;;;;;5.97;4.07;;;;;;;18.85;47.65;97892.25;6977668;28;20226;-81
2022/11/03 15:34:23;;;;;;;5.73;3.73;;;;;;;18.79;47.47;97884.34;6978222;28;20317;-81
2022/11/03 15:37:44;;;;;;;5.23;3.30;;;;;;;18.64;47.85;97881.69;6962232;28;20683;-81
2022/11/03 15:41:15;;;;;;;6.00;4.17;;;;;;;19.06;46.64;97861.03;6950121;28;20269;-81
2022/11/03 15:44:36;;;;;;;6.77;5.00;;;;;;;19.03;46.97;97871.66;6950193;28;20257;-81
2022/11/03 15:48:00;;;;;;;5.27;4.10;;;;;;;18.47;48.10;97873.03;6948033;28;20242;-80
2022/11/03 15:51:21;;;;;;;6.17;5.00;;;;;;;18.64;48.00;97881.69;6949102;28;20276;-81
2022/11/03 15:54:43;;;;;;;7.50;5.93;;;;;;;18.48;48.77;97880.09;6950071;28;20226;-81
2022/11/03 15:58:05;;;;;;;6.37;5.03;;;;;;;18.40;48.49;97859.66;6949160;28;20207;-82
2022/11/03 16:01:26;;;;;;;9.37;5.50;;;;;;;17.95;48.82;97831.63;6953847;28;20226;-81
2022/11/03 16:04:49;;;;;;;5.93;4.13;;;;;;;18.56;47.33;97819.47;6951451;28;20665;-81
2022/11/03 16:08:11;;;;;;;4.40;4.00;;;;;;;18.67;46.72;97832.81;6950269;28;20296;-81
2022/11/03 16:11:33;;;;;;;6.10;4.17;;;;;;;18.64;46.98;97818.91;6949476;28;20231;-82
2022/11/03 16:14:54;;;;;;;5.40;3.80;;;;;;;18.94;46.55;97810.53;6963368;28;20226;-80
2022/11/03 16:18:16;;;;;;;7.20;4.60;;;;;;;18.44;47.19;97806.16;6974203;28;20191;-80
2022/11/03 16:21:39;;;;;;;5.87;4.77;;;;;;;18.37;47.23;97799.34;6974746;28;20320;-80
2022/11/03 16:25:00;;;;;;;6.27;4.30;;;;;;;18.31;47.51;97808.63;6974689;28;20802;-80